sensor_id;sensor_type;location;lat;lon;timestamp;temperature;humidity
7530;DHT22;3806;52.270;10.544;2023-09-19T00:01:20;19.00;99.90
7530;DHT22;3806;52.270;10.544;2023-09-19T00:03:46;19.00;99.90
7530;DHT22;3806;52.270;10.544;2023-09-19T00:06:11;18.90;99.90
7530;DHT22;3806;52.270;10.544;2023-09-19T00:08:41;18.90;99.90
7530;DHT22;3806;52.270;10.544;2023-09-19T00:11:09;18.90;99.90
7530;DHT22;3806;52.270;10.544;2023-09-19T00:13:36;18.80;99.90
7530;DHT22;3806;52.270;10.544;2023-09-19T00:16:09;18.80;99.90
7530;DHT22;3806;52.270;10.544;2023-09-19T00:18:36;18.80;99.90
7530;DHT22;3806;52.270;10.544;2023-09-19T00:21:03;18.80;99.90
7530;DHT22;3806;52.270;10.544;2023-09-19T00:23:30;18.80;99.90
7530;DHT22;3806;52.270;10.544;2023-09-19T00:26:00;18.70;99.90
7530;DHT22;3806;52.270;10.544;2023-09-19T00:28:26;18.70;99.90
7530;DHT22;3806;52.270;10.544;2023-09-19T00:30:52;18.70;99.90
7530;DHT22;3806;52.270;10.544;2023-09-19T00:33:20;18.70;99.90
7530;DHT22;3806;52.270;10.544;2023-09-19T00:35:50;18.70;99.90
7530;DHT22;3806;52.270;10.544;2023-09-19T00:38:15;18.60;99.90
7530;DHT22;3806;52.270;10.544;2023-09-19T00:40:45;18.60;99.90
7530;DHT22;3806;52.270;10.544;2023-09-19T00:43:11;18.60;99.90
7530;DHT22;3806;52.270;10.544;2023-09-19T00:45:37;18.60;99.90
7530;DHT22;3806;52.270;10.544;2023-09-19T00:48:07;18.60;99.90
7530;DHT22;3806;52.270;10.544;2023-09-19T00:50:35;18.50;99.90
7530;DHT22;3806;52.270;10.544;2023-09-19T00:53:02;18.50;99.90
7530;DHT22;3806;52.270;10.544;2023-09-19T00:55:35;18.50;99.90
7530;DHT22;3806;52.270;10.544;2023-09-19T00:58:03;18.40;99.90
7530;DHT22;3806;52.270;10.544;2023-09-19T01:00:28;18.40;99.90
7530;DHT22;3806;52.270;10.544;2023-09-19T01:02:54;18.50;99.90
7530;DHT22;3806;52.270;10.544;2023-09-19T01:05:20;18.50;99.90
7530;DHT22;3806;52.270;10.544;2023-09-19T01:07:46;18.40;99.90
7530;DHT22;3806;52.270;10.544;2023-09-19T01:10:16;18.30;99.90
7530;DHT22;3806;52.270;10.544;2023-09-19T01:12:54;18.30;99.90
7530;DHT22;3806;52.270;10.544;2023-09-19T01:18:19;18.30;99.90
7530;DHT22;3806;52.270;10.544;2023-09-19T01:20:57;18.30;99.90
7530;DHT22;3806;52.270;10.544;2023-09-19T01:29:16;18.30;99.90
7530;DHT22;3806;52.270;10.544;2023-09-19T01:31:45;18.30;99.90
7530;DHT22;3806;52.270;10.544;2023-09-19T01:34:10;18.30;99.90
7530;DHT22;3806;52.270;10.544;2023-09-19T01:36:37;18.20;99.90
7530;DHT22;3806;52.270;10.544;2023-09-19T01:39:09;18.20;99.90
7530;DHT22;3806;52.270;10.544;2023-09-19T01:42:28;18.20;99.90
7530;DHT22;3806;52.270;10.544;2023-09-19T01:47:31;18.20;99.90
7530;DHT22;3806;52.270;10.544;2023-09-19T01:50:17;18.10;99.90
7530;DHT22;3806;52.270;10.544;2023-09-19T01:52:56;18.10;99.90
7530;DHT22;3806;52.270;10.544;2023-09-19T01:55:26;18.10;99.90
7530;DHT22;3806;52.270;10.544;2023-09-19T01:58:08;18.10;99.90
7530;DHT22;3806;52.270;10.544;2023-09-19T02:00:40;18.10;99.90
7530;DHT22;3806;52.270;10.544;2023-09-19T02:03:07;18.00;99.90
7530;DHT22;3806;52.270;10.544;2023-09-19T02:05:33;18.00;99.90
7530;DHT22;3806;52.270;10.544;2023-09-19T02:07:59;17.90;99.90
7530;DHT22;3806;52.270;10.544;2023-09-19T02:10:26;18.00;99.90
7530;DHT22;3806;52.270;10.544;2023-09-19T02:12:51;18.00;99.90
7530;DHT22;3806;52.270;10.544;2023-09-19T02:15:17;18.00;99.90
7530;DHT22;3806;52.270;10.544;2023-09-19T02:17:43;18.00;99.90
7530;DHT22;3806;52.270;10.544;2023-09-19T02:20:10;18.00;99.90
7530;DHT22;3806;52.270;10.544;2023-09-19T02:22:40;17.90;99.90
7530;DHT22;3806;52.270;10.544;2023-09-19T02:25:06;17.90;99.90
7530;DHT22;3806;52.270;10.544;2023-09-19T02:27:33;17.90;99.90
7530;DHT22;3806;52.270;10.544;2023-09-19T02:29:58;17.90;99.90
7530;DHT22;3806;52.270;10.544;2023-09-19T02:32:24;17.90;99.90
7530;DHT22;3806;52.270;10.544;2023-09-19T02:34:49;17.90;99.90
7530;DHT22;3806;52.270;10.544;2023-09-19T02:37:17;17.90;99.90
7530;DHT22;3806;52.270;10.544;2023-09-19T02:39:44;17.90;99.90
7530;DHT22;3806;52.270;10.544;2023-09-19T02:42:10;17.90;99.90
7530;DHT22;3806;52.270;10.544;2023-09-19T02:44:35;17.90;99.90
7530;DHT22;3806;52.270;10.544;2023-09-19T02:47:03;17.90;99.90
7530;DHT22;3806;52.270;10.544;2023-09-19T02:49:29;17.80;99.90
7530;DHT22;3806;52.270;10.544;2023-09-19T02:51:54;17.80;99.90
7530;DHT22;3806;52.270;10.544;2023-09-19T02:54:20;17.80;99.90
7530;DHT22;3806;52.270;10.544;2023-09-19T02:56:47;17.80;99.90
7530;DHT22;3806;52.270;10.544;2023-09-19T02:59:12;17.80;99.90
7530;DHT22;3806;52.270;10.544;2023-09-19T03:01:38;17.80;99.90
7530;DHT22;3806;52.270;10.544;2023-09-19T03:04:04;17.80;99.90
7530;DHT22;3806;52.270;10.544;2023-09-19T03:06:31;17.80;99.90
7530;DHT22;3806;52.270;10.544;2023-09-19T03:08:57;17.70;99.90
7530;DHT22;3806;52.270;10.544;2023-09-19T03:11:25;17.70;99.90
7530;DHT22;3806;52.270;10.544;2023-09-19T03:13:52;17.70;99.90
7530;DHT22;3806;52.270;10.544;2023-09-19T03:16:18;17.70;99.90
7530;DHT22;3806;52.270;10.544;2023-09-19T03:18:48;17.60;99.90
7530;DHT22;3806;52.270;10.544;2023-09-19T03:21:15;17.70;99.90
7530;DHT22;3806;52.270;10.544;2023-09-19T03:23:40;17.70;99.90
7530;DHT22;3806;52.270;10.544;2023-09-19T03:26:06;17.70;99.90
7530;DHT22;3806;52.270;10.544;2023-09-19T03:28:33;17.60;99.90
7530;DHT22;3806;52.270;10.544;2023-09-19T03:31:01;17.60;99.90
7530;DHT22;3806;52.270;10.544;2023-09-19T03:33:27;17.60;99.90
7530;DHT22;3806;52.270;10.544;2023-09-19T03:35:53;17.60;99.90
7530;DHT22;3806;52.270;10.544;2023-09-19T03:38:19;17.60;99.90
7530;DHT22;3806;52.270;10.544;2023-09-19T03:40:45;17.60;99.90
7530;DHT22;3806;52.270;10.544;2023-09-19T03:43:10;17.60;99.90
7530;DHT22;3806;52.270;10.544;2023-09-19T03:45:36;17.60;99.90
7530;DHT22;3806;52.270;10.544;2023-09-19T03:48:11;17.60;99.90
7530;DHT22;3806;52.270;10.544;2023-09-19T03:50:37;17.60;99.90
7530;DHT22;3806;52.270;10.544;2023-09-19T03:53:02;17.60;99.90
7530;DHT22;3806;52.270;10.544;2023-09-19T03:55:28;17.50;99.90
7530;DHT22;3806;52.270;10.544;2023-09-19T03:57:56;17.50;99.90
7530;DHT22;3806;52.270;10.544;2023-09-19T04:00:21;17.40;99.90
7530;DHT22;3806;52.270;10.544;2023-09-19T04:02:51;17.40;99.90
7530;DHT22;3806;52.270;10.544;2023-09-19T04:05:16;17.30;99.90
7530;DHT22;3806;52.270;10.544;2023-09-19T04:07:42;17.30;99.90
7530;DHT22;3806;52.270;10.544;2023-09-19T04:10:08;17.30;99.90
7530;DHT22;3806;52.270;10.544;2023-09-19T04:12:35;17.30;99.90
7530;DHT22;3806;52.270;10.544;2023-09-19T04:15:00;17.30;99.90
7530;DHT22;3806;52.270;10.544;2023-09-19T04:17:26;17.20;99.90
7530;DHT22;3806;52.270;10.544;2023-09-19T04:19:52;17.20;99.90
7530;DHT22;3806;52.270;10.544;2023-09-19T04:22:18;17.20;99.90
7530;DHT22;3806;52.270;10.544;2023-09-19T04:24:44;17.20;99.90
7530;DHT22;3806;52.270;10.544;2023-09-19T04:27:09;17.20;99.90
7530;DHT22;3806;52.270;10.544;2023-09-19T04:29:35;17.10;99.90
7530;DHT22;3806;52.270;10.544;2023-09-19T04:32:00;17.10;99.90
7530;DHT22;3806;52.270;10.544;2023-09-19T04:34:26;17.10;99.90
7530;DHT22;3806;52.270;10.544;2023-09-19T04:36:52;17.10;99.90
7530;DHT22;3806;52.270;10.544;2023-09-19T04:39:18;17.10;99.90
7530;DHT22;3806;52.270;10.544;2023-09-19T04:41:44;17.10;99.90
7530;DHT22;3806;52.270;10.544;2023-09-19T04:44:13;17.20;99.90
7530;DHT22;3806;52.270;10.544;2023-09-19T04:46:39;17.20;99.90
7530;DHT22;3806;52.270;10.544;2023-09-19T04:49:04;17.20;99.90
7530;DHT22;3806;52.270;10.544;2023-09-19T04:51:30;17.10;99.90
7530;DHT22;3806;52.270;10.544;2023-09-19T04:54:00;17.20;99.90
7530;DHT22;3806;52.270;10.544;2023-09-19T04:56:25;17.10;99.90
7530;DHT22;3806;52.270;10.544;2023-09-19T04:58:51;17.10;99.90
7530;DHT22;3806;52.270;10.544;2023-09-19T05:01:16;17.20;99.90
7530;DHT22;3806;52.270;10.544;2023-09-19T05:03:41;17.20;99.90
7530;DHT22;3806;52.270;10.544;2023-09-19T05:06:07;17.20;99.90
7530;DHT22;3806;52.270;10.544;2023-09-19T05:08:33;17.20;99.90
7530;DHT22;3806;52.270;10.544;2023-09-19T05:11:01;17.20;99.90
7530;DHT22;3806;52.270;10.544;2023-09-19T05:13:27;17.20;99.90
7530;DHT22;3806;52.270;10.544;2023-09-19T05:15:52;17.20;99.90
7530;DHT22;3806;52.270;10.544;2023-09-19T05:18:18;17.20;99.90
7530;DHT22;3806;52.270;10.544;2023-09-19T05:20:44;17.20;99.90
7530;DHT22;3806;52.270;10.544;2023-09-19T05:23:09;17.20;99.90
7530;DHT22;3806;52.270;10.544;2023-09-19T05:25:38;17.20;99.90
7530;DHT22;3806;52.270;10.544;2023-09-19T05:28:09;17.20;99.90
7530;DHT22;3806;52.270;10.544;2023-09-19T05:30:37;17.20;99.90
7530;DHT22;3806;52.270;10.544;2023-09-19T05:33:04;17.20;99.90
7530;DHT22;3806;52.270;10.544;2023-09-19T05:35:30;17.10;99.90
7530;DHT22;3806;52.270;10.544;2023-09-19T05:37:56;17.10;99.90
7530;DHT22;3806;52.270;10.544;2023-09-19T05:40:23;17.10;99.90
7530;DHT22;3806;52.270;10.544;2023-09-19T05:42:49;17.10;99.90
7530;DHT22;3806;52.270;10.544;2023-09-19T05:45:16;17.10;99.90
7530;DHT22;3806;52.270;10.544;2023-09-19T05:47:50;17.10;99.90
7530;DHT22;3806;52.270;10.544;2023-09-19T05:50:17;17.10;99.90
7530;DHT22;3806;52.270;10.544;2023-09-19T05:52:47;17.10;99.90
7530;DHT22;3806;52.270;10.544;2023-09-19T05:55:17;17.10;99.90
7530;DHT22;3806;52.270;10.544;2023-09-19T05:57:43;17.10;99.90
7530;DHT22;3806;52.270;10.544;2023-09-19T06:00:08;17.10;99.90
7530;DHT22;3806;52.270;10.544;2023-09-19T06:02:36;17.10;99.90
7530;DHT22;3806;52.270;10.544;2023-09-19T06:05:06;17.10;99.90
7530;DHT22;3806;52.270;10.544;2023-09-19T06:07:35;17.10;99.90
7530;DHT22;3806;52.270;10.544;2023-09-19T06:10:06;17.20;99.90
7530;DHT22;3806;52.270;10.544;2023-09-19T06:12:42;17.20;99.90
7530;DHT22;3806;52.270;10.544;2023-09-19T06:15:11;17.20;99.90
7530;DHT22;3806;52.270;10.544;2023-09-19T06:17:50;17.20;99.90
7530;DHT22;3806;52.270;10.544;2023-09-19T06:20:17;17.20;99.90
7530;DHT22;3806;52.270;10.544;2023-09-19T06:22:44;17.30;99.90
7530;DHT22;3806;52.270;10.544;2023-09-19T06:25:11;17.80;99.90
7530;DHT22;3806;52.270;10.544;2023-09-19T06:27:40;18.40;99.90
7530;DHT22;3806;52.270;10.544;2023-09-19T06:30:10;19.00;99.00
7530;DHT22;3806;52.270;10.544;2023-09-19T06:32:37;20.30;96.80
7530;DHT22;3806;52.270;10.544;2023-09-19T06:35:02;22.00;93.60
7530;DHT22;3806;52.270;10.544;2023-09-19T06:37:29;23.70;89.10
7530;DHT22;3806;52.270;10.544;2023-09-19T06:39:54;24.90;79.60
7530;DHT22;3806;52.270;10.544;2023-09-19T06:42:20;25.80;72.90
7530;DHT22;3806;52.270;10.544;2023-09-19T06:44:48;26.50;65.70
7530;DHT22;3806;52.270;10.544;2023-09-19T06:47:13;27.70;59.30
7530;DHT22;3806;52.270;10.544;2023-09-19T06:49:42;28.90;54.00
7530;DHT22;3806;52.270;10.544;2023-09-19T06:52:09;30.10;49.60
7530;DHT22;3806;52.270;10.544;2023-09-19T06:54:35;31.30;44.60
7530;DHT22;3806;52.270;10.544;2023-09-19T06:57:01;32.20;40.00
7530;DHT22;3806;52.270;10.544;2023-09-19T06:59:26;33.00;37.90
7530;DHT22;3806;52.270;10.544;2023-09-19T07:01:52;33.70;35.20
7530;DHT22;3806;52.270;10.544;2023-09-19T07:04:18;34.40;33.60
7530;DHT22;3806;52.270;10.544;2023-09-19T07:06:50;34.00;31.70
7530;DHT22;3806;52.270;10.544;2023-09-19T07:09:16;33.50;32.20
7530;DHT22;3806;52.270;10.544;2023-09-19T07:11:43;33.20;32.70
7530;DHT22;3806;52.270;10.544;2023-09-19T07:14:08;33.10;33.20
7530;DHT22;3806;52.270;10.544;2023-09-19T07:16:37;32.70;33.10
7530;DHT22;3806;52.270;10.544;2023-09-19T07:19:04;32.00;33.10
7530;DHT22;3806;52.270;10.544;2023-09-19T07:21:29;31.00;34.60
7530;DHT22;3806;52.270;10.544;2023-09-19T07:23:55;30.30;35.90
7530;DHT22;3806;52.270;10.544;2023-09-19T07:26:20;29.50;37.10
7530;DHT22;3806;52.270;10.544;2023-09-19T07:28:46;29.10;38.00
7530;DHT22;3806;52.270;10.544;2023-09-19T07:31:11;28.70;39.20
7530;DHT22;3806;52.270;10.544;2023-09-19T07:33:39;28.30;39.50
7530;DHT22;3806;52.270;10.544;2023-09-19T07:36:05;28.00;40.70
7530;DHT22;3806;52.270;10.544;2023-09-19T07:38:31;27.90;40.80
7530;DHT22;3806;52.270;10.544;2023-09-19T07:41:01;28.00;41.20
7530;DHT22;3806;52.270;10.544;2023-09-19T07:43:28;28.30;41.30
7530;DHT22;3806;52.270;10.544;2023-09-19T07:45:53;29.00;40.30
7530;DHT22;3806;52.270;10.544;2023-09-19T07:48:18;29.70;39.10
7530;DHT22;3806;52.270;10.544;2023-09-19T07:50:44;30.00;38.00
7530;DHT22;3806;52.270;10.544;2023-09-19T07:53:10;30.60;38.10
7530;DHT22;3806;52.270;10.544;2023-09-19T07:55:38;31.50;35.60
7530;DHT22;3806;52.270;10.544;2023-09-19T07:58:06;32.70;34.40
7530;DHT22;3806;52.270;10.544;2023-09-19T08:00:32;33.90;32.00
7530;DHT22;3806;52.270;10.544;2023-09-19T08:03:00;35.10;29.60
7530;DHT22;3806;52.270;10.544;2023-09-19T08:05:26;35.70;28.50
7530;DHT22;3806;52.270;10.544;2023-09-19T08:07:51;35.40;28.00
7530;DHT22;3806;52.270;10.544;2023-09-19T08:10:19;34.90;28.00
7530;DHT22;3806;52.270;10.544;2023-09-19T08:12:46;34.60;28.30
7530;DHT22;3806;52.270;10.544;2023-09-19T08:15:15;34.50;28.50
7530;DHT22;3806;52.270;10.544;2023-09-19T08:17:41;34.40;28.40
7530;DHT22;3806;52.270;10.544;2023-09-19T08:20:07;34.00;28.70
7530;DHT22;3806;52.270;10.544;2023-09-19T08:22:34;33.30;28.60
7530;DHT22;3806;52.270;10.544;2023-09-19T08:25:00;32.30;29.60
7530;DHT22;3806;52.270;10.544;2023-09-19T08:27:30;31.80;30.50
7530;DHT22;3806;52.270;10.544;2023-09-19T08:29:56;31.10;30.90
7530;DHT22;3806;52.270;10.544;2023-09-19T08:32:22;31.10;30.90
7530;DHT22;3806;52.270;10.544;2023-09-19T08:34:50;31.00;31.30
7530;DHT22;3806;52.270;10.544;2023-09-19T08:37:15;30.60;32.60
7530;DHT22;3806;52.270;10.544;2023-09-19T08:39:42;30.30;32.60
7530;DHT22;3806;52.270;10.544;2023-09-19T08:42:08;30.00;32.80
7530;DHT22;3806;52.270;10.544;2023-09-19T08:44:37;29.70;34.30
7530;DHT22;3806;52.270;10.544;2023-09-19T08:47:15;29.40;34.10
7530;DHT22;3806;52.270;10.544;2023-09-19T08:49:52;29.00;34.50
7530;DHT22;3806;52.270;10.544;2023-09-19T08:52:32;28.90;34.60
7530;DHT22;3806;52.270;10.544;2023-09-19T08:55:02;29.10;34.80
7530;DHT22;3806;52.270;10.544;2023-09-19T08:57:36;29.60;34.40
7530;DHT22;3806;52.270;10.544;2023-09-19T09:00:07;30.30;34.10
7530;DHT22;3806;52.270;10.544;2023-09-19T09:02:38;30.90;32.60
7530;DHT22;3806;52.270;10.544;2023-09-19T09:05:09;31.50;31.70
7530;DHT22;3806;52.270;10.544;2023-09-19T09:07:39;31.80;30.30
7530;DHT22;3806;52.270;10.544;2023-09-19T09:10:06;32.00;30.00
7530;DHT22;3806;52.270;10.544;2023-09-19T09:12:33;32.20;29.70
7530;DHT22;3806;52.270;10.544;2023-09-19T09:15:02;32.00;29.70
7530;DHT22;3806;52.270;10.544;2023-09-19T09:17:29;32.10;29.90
7530;DHT22;3806;52.270;10.544;2023-09-19T09:19:55;32.50;29.90
7530;DHT22;3806;52.270;10.544;2023-09-19T09:22:21;32.90;29.60
7530;DHT22;3806;52.270;10.544;2023-09-19T09:24:53;32.60;28.80
7530;DHT22;3806;52.270;10.544;2023-09-19T09:27:20;32.20;29.10
7530;DHT22;3806;52.270;10.544;2023-09-19T09:29:46;32.00;29.80
7530;DHT22;3806;52.270;10.544;2023-09-19T09:32:28;32.20;29.50
7530;DHT22;3806;52.270;10.544;2023-09-19T09:34:58;31.80;29.40
7530;DHT22;3806;52.270;10.544;2023-09-19T09:37:25;31.50;29.90
7530;DHT22;3806;52.270;10.544;2023-09-19T09:40:00;31.60;30.00
7530;DHT22;3806;52.270;10.544;2023-09-19T09:42:41;31.60;30.00
7530;DHT22;3806;52.270;10.544;2023-09-19T09:45:18;31.20;30.00
7530;DHT22;3806;52.270;10.544;2023-09-19T09:48:03;31.00;30.50
7530;DHT22;3806;52.270;10.544;2023-09-19T09:50:31;30.60;30.20
7530;DHT22;3806;52.270;10.544;2023-09-19T09:53:25;29.90;30.90
7530;DHT22;3806;52.270;10.544;2023-09-19T09:58:25;28.80;32.80
7530;DHT22;3806;52.270;10.544;2023-09-19T10:00:58;28.40;33.40
7530;DHT22;3806;52.270;10.544;2023-09-19T10:03:36;28.20;33.90
7530;DHT22;3806;52.270;10.544;2023-09-19T10:06:07;27.90;34.40
7530;DHT22;3806;52.270;10.544;2023-09-19T10:09:00;27.50;34.10
7530;DHT22;3806;52.270;10.544;2023-09-19T10:11:57;27.00;35.30
7530;DHT22;3806;52.270;10.544;2023-09-19T10:14:30;26.60;36.10
7530;DHT22;3806;52.270;10.544;2023-09-19T10:16:58;26.20;37.40
7530;DHT22;3806;52.270;10.544;2023-09-19T10:19:58;25.90;37.60
7530;DHT22;3806;52.270;10.544;2023-09-19T10:22:26;25.80;38.10
7530;DHT22;3806;52.270;10.544;2023-09-19T10:24:53;25.60;38.50
7530;DHT22;3806;52.270;10.544;2023-09-19T10:27:20;25.50;39.10
7530;DHT22;3806;52.270;10.544;2023-09-19T10:29:49;25.40;39.30
7530;DHT22;3806;52.270;10.544;2023-09-19T10:32:16;25.40;39.00
7530;DHT22;3806;52.270;10.544;2023-09-19T10:34:46;25.30;38.90
7530;DHT22;3806;52.270;10.544;2023-09-19T10:37:12;25.30;39.00
7530;DHT22;3806;52.270;10.544;2023-09-19T10:39:39;25.50;39.90
7530;DHT22;3806;52.270;10.544;2023-09-19T10:42:06;25.80;39.70
7530;DHT22;3806;52.270;10.544;2023-09-19T10:44:37;25.80;38.70
7530;DHT22;3806;52.270;10.544;2023-09-19T10:47:07;25.80;38.80
7530;DHT22;3806;52.270;10.544;2023-09-19T10:49:34;25.50;39.10
7530;DHT22;3806;52.270;10.544;2023-09-19T10:52:01;25.40;39.40
7530;DHT22;3806;52.270;10.544;2023-09-19T10:54:33;25.30;39.80
7530;DHT22;3806;52.270;10.544;2023-09-19T10:57:02;25.30;40.00
7530;DHT22;3806;52.270;10.544;2023-09-19T10:59:30;25.20;40.50
7530;DHT22;3806;52.270;10.544;2023-09-19T11:02:00;24.90;40.20
7530;DHT22;3806;52.270;10.544;2023-09-19T11:04:40;24.70;40.80
7530;DHT22;3806;52.270;10.544;2023-09-19T11:07:08;24.50;40.80
7530;DHT22;3806;52.270;10.544;2023-09-19T11:09:54;24.50;41.00
7530;DHT22;3806;52.270;10.544;2023-09-19T11:12:51;24.60;41.00
7530;DHT22;3806;52.270;10.544;2023-09-19T11:27:14;24.40;42.30
7530;DHT22;3806;52.270;10.544;2023-09-19T11:29:42;24.40;42.70
7530;DHT22;3806;52.270;10.544;2023-09-19T11:32:07;24.40;42.30
7530;DHT22;3806;52.270;10.544;2023-09-19T11:34:42;24.20;42.70
7530;DHT22;3806;52.270;10.544;2023-09-19T11:39:37;24.20;41.60
7530;DHT22;3806;52.270;10.544;2023-09-19T11:42:42;24.10;42.10
7530;DHT22;3806;52.270;10.544;2023-09-19T11:46:14;24.10;42.60
7530;DHT22;3806;52.270;10.544;2023-09-19T11:48:23;24.00;42.30
7530;DHT22;3806;52.270;10.544;2023-09-19T11:50:52;24.10;42.40
7530;DHT22;3806;52.270;10.544;2023-09-19T11:53:19;24.20;42.40
7530;DHT22;3806;52.270;10.544;2023-09-19T11:55:45;24.30;42.70
7530;DHT22;3806;52.270;10.544;2023-09-19T11:58:14;24.40;42.80
7530;DHT22;3806;52.270;10.544;2023-09-19T12:00:44;24.40;41.60
7530;DHT22;3806;52.270;10.544;2023-09-19T12:03:11;24.10;41.40
7530;DHT22;3806;52.270;10.544;2023-09-19T12:05:37;23.90;41.80
7530;DHT22;3806;52.270;10.544;2023-09-19T12:08:07;23.70;42.20
7530;DHT22;3806;52.270;10.544;2023-09-19T12:10:50;23.70;43.10
7530;DHT22;3806;52.270;10.544;2023-09-19T12:13:21;23.70;43.50
7530;DHT22;3806;52.270;10.544;2023-09-19T12:15:47;23.90;44.30
7530;DHT22;3806;52.270;10.544;2023-09-19T12:18:30;23.90;43.10
7530;DHT22;3806;52.270;10.544;2023-09-19T12:20:56;23.90;42.70
7530;DHT22;3806;52.270;10.544;2023-09-19T12:23:23;23.90;42.40
7530;DHT22;3806;52.270;10.544;2023-09-19T12:25:49;24.00;42.80
7530;DHT22;3806;52.270;10.544;2023-09-19T12:28:19;24.20;42.80
7530;DHT22;3806;52.270;10.544;2023-09-19T12:30:47;24.40;43.30
7530;DHT22;3806;52.270;10.544;2023-09-19T12:33:17;24.50;42.20
7530;DHT22;3806;52.270;10.544;2023-09-19T12:35:45;24.60;41.90
7530;DHT22;3806;52.270;10.544;2023-09-19T12:38:10;24.70;41.20
7530;DHT22;3806;52.270;10.544;2023-09-19T12:40:38;24.70;41.20
7530;DHT22;3806;52.270;10.544;2023-09-19T12:43:05;24.60;41.10
7530;DHT22;3806;52.270;10.544;2023-09-19T12:45:35;24.60;41.10
7530;DHT22;3806;52.270;10.544;2023-09-19T12:48:24;24.40;41.00
7530;DHT22;3806;52.270;10.544;2023-09-19T12:51:07;24.40;41.40
7530;DHT22;3806;52.270;10.544;2023-09-19T12:53:43;24.40;41.30
7530;DHT22;3806;52.270;10.544;2023-09-19T12:56:10;24.40;41.40
7530;DHT22;3806;52.270;10.544;2023-09-19T12:58:58;24.50;41.70
7530;DHT22;3806;52.270;10.544;2023-09-19T13:01:29;24.50;40.80
7530;DHT22;3806;52.270;10.544;2023-09-19T13:04:16;24.40;40.90
7530;DHT22;3806;52.270;10.544;2023-09-19T13:06:51;24.20;41.50
7530;DHT22;3806;52.270;10.544;2023-09-19T13:09:18;23.90;41.20
7530;DHT22;3806;52.270;10.544;2023-09-19T13:11:45;23.90;41.90
7530;DHT22;3806;52.270;10.544;2023-09-19T13:14:19;23.70;42.60
7530;DHT22;3806;52.270;10.544;2023-09-19T13:17:04;23.60;42.40
7530;DHT22;3806;52.270;10.544;2023-09-19T13:19:57;23.50;43.30
7530;DHT22;3806;52.270;10.544;2023-09-19T13:22:42;23.50;43.80
7530;DHT22;3806;52.270;10.544;2023-09-19T13:25:13;23.50;43.30
7530;DHT22;3806;52.270;10.544;2023-09-19T13:27:41;23.40;43.80
7530;DHT22;3806;52.270;10.544;2023-09-19T13:30:07;23.40;43.00
7530;DHT22;3806;52.270;10.544;2023-09-19T13:32:33;23.30;43.10
7530;DHT22;3806;52.270;10.544;2023-09-19T13:34:59;23.40;43.70
7530;DHT22;3806;52.270;10.544;2023-09-19T13:37:25;23.50;43.50
7530;DHT22;3806;52.270;10.544;2023-09-19T13:39:51;23.60;43.50
7530;DHT22;3806;52.270;10.544;2023-09-19T13:42:17;23.70;43.00
7530;DHT22;3806;52.270;10.544;2023-09-19T13:44:43;23.70;43.10
7530;DHT22;3806;52.270;10.544;2023-09-19T13:47:09;23.80;42.30
7530;DHT22;3806;52.270;10.544;2023-09-19T13:49:36;23.80;42.80
7530;DHT22;3806;52.270;10.544;2023-09-19T13:52:02;23.80;42.70
7530;DHT22;3806;52.270;10.544;2023-09-19T13:54:31;23.80;42.30
7530;DHT22;3806;52.270;10.544;2023-09-19T13:56:56;23.90;42.40
7530;DHT22;3806;52.270;10.544;2023-09-19T13:59:22;23.90;42.20
7530;DHT22;3806;52.270;10.544;2023-09-19T14:01:49;23.90;42.50
7530;DHT22;3806;52.270;10.544;2023-09-19T14:04:16;23.90;42.10
7530;DHT22;3806;52.270;10.544;2023-09-19T14:06:42;23.90;42.20
7530;DHT22;3806;52.270;10.544;2023-09-19T14:09:08;23.80;42.30
7530;DHT22;3806;52.270;10.544;2023-09-19T14:11:35;23.80;42.70
7530;DHT22;3806;52.270;10.544;2023-09-19T14:14:01;23.80;42.50
7530;DHT22;3806;52.270;10.544;2023-09-19T14:16:27;23.90;42.60
7530;DHT22;3806;52.270;10.544;2023-09-19T14:18:56;23.90;42.60
7530;DHT22;3806;52.270;10.544;2023-09-19T14:21:22;23.90;42.70
7530;DHT22;3806;52.270;10.544;2023-09-19T14:23:48;23.80;42.20
7530;DHT22;3806;52.270;10.544;2023-09-19T14:26:14;23.60;41.80
7530;DHT22;3806;52.270;10.544;2023-09-19T14:28:41;23.50;42.20
7530;DHT22;3806;52.270;10.544;2023-09-19T14:31:10;23.40;42.70
7530;DHT22;3806;52.270;10.544;2023-09-19T14:33:36;23.30;42.70
7530;DHT22;3806;52.270;10.544;2023-09-19T14:36:04;23.20;42.60
7530;DHT22;3806;52.270;10.544;2023-09-19T14:38:35;23.10;43.30
7530;DHT22;3806;52.270;10.544;2023-09-19T14:41:05;22.90;44.00
7530;DHT22;3806;52.270;10.544;2023-09-19T14:43:31;22.90;43.90
7530;DHT22;3806;52.270;10.544;2023-09-19T14:46:02;22.80;43.80
7530;DHT22;3806;52.270;10.544;2023-09-19T14:48:27;22.70;43.90
7530;DHT22;3806;52.270;10.544;2023-09-19T14:50:53;22.60;44.70
7530;DHT22;3806;52.270;10.544;2023-09-19T14:53:21;22.50;44.40
7530;DHT22;3806;52.270;10.544;2023-09-19T14:55:46;22.40;44.80
7530;DHT22;3806;52.270;10.544;2023-09-19T14:58:13;22.30;44.90
7530;DHT22;3806;52.270;10.544;2023-09-19T15:00:39;22.10;45.20
7530;DHT22;3806;52.270;10.544;2023-09-19T15:03:04;22.00;45.20
7530;DHT22;3806;52.270;10.544;2023-09-19T15:05:31;21.90;45.40
7530;DHT22;3806;52.270;10.544;2023-09-19T15:07:56;21.90;45.70
7530;DHT22;3806;52.270;10.544;2023-09-19T15:10:23;21.80;46.30
7530;DHT22;3806;52.270;10.544;2023-09-19T15:12:49;21.80;46.20
7530;DHT22;3806;52.270;10.544;2023-09-19T15:15:14;21.80;46.50
7530;DHT22;3806;52.270;10.544;2023-09-19T15:17:40;21.80;46.70
7530;DHT22;3806;52.270;10.544;2023-09-19T15:20:06;21.80;46.80
7530;DHT22;3806;52.270;10.544;2023-09-19T15:22:33;21.90;47.00
7530;DHT22;3806;52.270;10.544;2023-09-19T15:25:00;21.80;46.50
7530;DHT22;3806;52.270;10.544;2023-09-19T15:27:27;21.80;46.80
7530;DHT22;3806;52.270;10.544;2023-09-19T15:29:53;21.70;47.00
7530;DHT22;3806;52.270;10.544;2023-09-19T15:32:18;21.60;46.90
7530;DHT22;3806;52.270;10.544;2023-09-19T15:34:44;21.60;47.30
7530;DHT22;3806;52.270;10.544;2023-09-19T15:37:09;21.50;47.30
7530;DHT22;3806;52.270;10.544;2023-09-19T15:39:35;21.50;47.50
7530;DHT22;3806;52.270;10.544;2023-09-19T15:42:02;21.50;47.50
7530;DHT22;3806;52.270;10.544;2023-09-19T15:44:28;21.50;47.50
7530;DHT22;3806;52.270;10.544;2023-09-19T15:46:53;21.40;47.90
7530;DHT22;3806;52.270;10.544;2023-09-19T15:49:19;21.40;48.10
7530;DHT22;3806;52.270;10.544;2023-09-19T15:51:45;21.40;48.40
7530;DHT22;3806;52.270;10.544;2023-09-19T15:54:12;21.40;48.40
7530;DHT22;3806;52.270;10.544;2023-09-19T15:56:42;21.30;49.00
7530;DHT22;3806;52.270;10.544;2023-09-19T15:59:08;21.30;49.10
7530;DHT22;3806;52.270;10.544;2023-09-19T16:01:38;21.30;49.20
7530;DHT22;3806;52.270;10.544;2023-09-19T16:04:05;21.40;49.50
7530;DHT22;3806;52.270;10.544;2023-09-19T16:06:34;21.30;49.40
7530;DHT22;3806;52.270;10.544;2023-09-19T16:09:00;21.30;49.80
7530;DHT22;3806;52.270;10.544;2023-09-19T16:11:29;21.30;50.10
7530;DHT22;3806;52.270;10.544;2023-09-19T16:13:56;21.30;50.40
7530;DHT22;3806;52.270;10.544;2023-09-19T16:16:23;21.30;50.60
7530;DHT22;3806;52.270;10.544;2023-09-19T16:18:50;21.20;50.30
7530;DHT22;3806;52.270;10.544;2023-09-19T16:21:16;21.20;50.60
7530;DHT22;3806;52.270;10.544;2023-09-19T16:23:46;21.20;50.80